Capitol Logistics 79




PANC
Ted Stevens Anchorage International Airport
Anchorage, Alaska
KHSV
Huntsville International Airport
Huntsville, Alabama

Activity Log

Date Flight Route Aircraft Duration
10/31/2021 CPX79 TED YESKA NCA13 YXY J515 YYE J537 YPE YWV VLN J483 MOT ABR Q19 DSM J45 IRK FAM J151 VUZ B744 6h 08m
09/09/2020 CPX251 PANC/15 ANCHO9 YESKA NCA13 YXY J515 YQH YOJ TULAG Q963 PETMA YQD VLR HML GFK GEP ALO IOW ENL BNA J39 SALMS KHSV/I18L B763 6h 37m
06/17/2020 CPX251 MDO B453 KATCH YZT YVR EPH LKT J52 DBS J175 LAR HCT BUM J112 FAM J151 FLORS B763 7h 12m
04/19/2020 CPX103 PANC YESKA NCA11 YWV J475 VLN J483 MOT V15 ABR J45 DSM Q19 STL V125 DUEAS V540 CNG V67 GHM KHSV B77L 6h 00m
02/27/2020 CPX251 NOEND4 NOEND TMSON NCA13 YQD J596 YWG J89 BAE J101 OBK J73 BNA J39 SALMS DCU B763 6h 46m
12/17/2019 CPX251 NOEND4 NOEND TMSON NCA13 YQD J596 YWG J89 BAE J101 OBK J73 BNA J39 SALMS DCU B763 6h 50m
10/23/2019 CPX251 NOEND4 NOEND TMSON NCA13 YQD J596 YWG J89 BAE J101 OBK J73 BNA J39 SALMS B763 6h 41m
07/12/2019 CPX251 TED YESKA NCA13 YXY J515 YYE J537 YPE J601 XD YWV J475 VLN J483 MOT ABR Q19 DSM J45 IRK FAM J151 VUZ B763 6h 49m
05/28/2019 CPX103 TED YESKA NCA11 NUBEG/N0501F350 NCA11 YWV J475 VLN 49N100W GFK GEP ALO IOW STL J151 FLORS B744 6h 11m
05/03/2019 CPX103 JOH J501 YAK NCA10 YQU J515 YEG VLN J483 MOT/N0479F330 ABR J45 IRK FAM J151 FLORS B744 5h 40m
02/25/2019 CPX103 TED J133 JOH COHIL NCA11 YWV J475 VLN J483 MOT RWF J90 MCW IOW ENL BNA V49 DCU MD11 6h 00m
02/17/2019 CPX251 TED YESKA NCA13 YXY J515 YYE J537 YPE J601 XD YWV J475 VLN J483 MOT ABR Q19 DSM J45 IRK FAM J151 VUZ B763 6h 29m
12/20/2018 CPX509 TED YESKA NCA11 YWV J475 VLN J483 MOT ABR J45 IRK FAM J151 FLORS B763 6h 08m

Route Details

Aircraft Information
Group: Boeing Long Haul
Types: B744,B763
Route Data
Demand: V
Distance: 2850nm
Duration: 6h 00m
Recm'd Route: TED YESKA NCA13 YXY J515 YYE J537 YPE J601 XD YWV J475 VLN J483 MOT ABR Q19 DSM J45 IRK FAM J151 VUZ
Origin Wx: PANC 252353Z 00000KT 10SM SCT020 BKN036 00/M03 A3008 RMK AO2 SNE2258 SLP188 4/014 P0000 60005 T00001028 10006 21006 51022
Dest. Wx: KHSV 252353Z 02011KT 10SM CLR 05/M02 A3016 RMK AO2 SLP214 T00501022 10117 20044 53030
Notes:

Financial History
Total Freight: 1,562,806lbs
Average Load: 120,216lbs/flt
Fuel Used: 1,184,604lbs
Avg. Fuel Used: 91,123lbs/flt
Fuel Expense: $1,376,153
Avg. Fuel Expense: $105,858
Avg. Fuel Cost: $1.18/lbs
Total Gross Income: $3,263,089
Pilot Pay: $2,647
Total Expenses: $355,731
Total Revenue: $1,515,554
Average Revenue: $251,006.85